sim
Sign-in with your pilot id or email,
or register
Callsign
Passwort

Schedule Details

Flight Number: DLH2724 (1)
Departure: Munich Airport (EDDM) at 16:30
Arrival: Berlin Tegel Airport (EDDT) at 17:40
Route: Lufthansa Passenger Schedule. Enter filed route here before submitting Pirep.

Weather Information
Getting current METAR information for EDDM 210350Z VRB01KT CAVOK 07/07 Q1016 NOSIG
Getting current METAR information for EDDT 210350Z 05003KT 360V150 CAVOK 09/06 Q1018 NOSIG

Schedule Frequency

Route Map